createdAt,value
2023-07-27T00:00:13.815Z,21.6
2023-07-27T00:05:15.744Z,21.6
2023-07-27T00:10:21.665Z,21.6
2023-07-27T00:15:18.896Z,21.6
2023-07-27T00:20:13.943Z,21.6
2023-07-27T00:25:15.637Z,21.6
2023-07-27T00:30:20.744Z,21.5
2023-07-27T00:35:19.585Z,21.5
2023-07-27T00:40:22.782Z,21.5
2023-07-27T00:45:17.905Z,21.5
2023-07-27T00:50:16.065Z,21.5
2023-07-27T00:55:16.002Z,21.5
2023-07-27T01:00:20.058Z,21.5
2023-07-27T01:05:18.304Z,21.5
2023-07-27T01:10:23.213Z,21.5
2023-07-27T01:15:16.099Z,21.5
2023-07-27T01:20:15.977Z,21.4
2023-07-27T01:25:16.001Z,21.4
2023-07-27T01:30:18.165Z,21.4
2023-07-27T01:35:16.184Z,21.4
2023-07-27T01:40:24.144Z,21.4
2023-07-27T01:45:21.975Z,21.4
2023-07-27T01:50:21.840Z,21.4
2023-07-27T01:55:13.725Z,21.4
2023-07-27T02:00:17.973Z,21.4
2023-07-27T02:05:16.420Z,21.4
2023-07-27T02:10:14.246Z,21.3
2023-07-27T02:15:20.262Z,21.3
2023-07-27T02:20:20.150Z,21.3
2023-07-27T02:25:18.010Z,21.3
2023-07-27T02:30:16.232Z,21.3
2023-07-27T02:35:16.063Z,21.3
2023-07-27T02:40:16.013Z,21.3
2023-07-27T02:45:13.873Z,21.3
2023-07-27T02:50:18.311Z,21.3
2023-07-27T02:55:18.522Z,21.3
2023-07-27T03:00:18.396Z,21.2
2023-07-27T03:05:14.386Z,21.2
2023-07-27T03:10:18.718Z,21.2
2023-07-27T03:15:21.609Z,21.2
2023-07-27T03:20:16.428Z,21.2
2023-07-27T03:25:14.213Z,21.2
2023-07-27T03:30:18.220Z,21.2
2023-07-27T03:35:16.104Z,21.2
2023-07-27T03:40:17.881Z,21.1
2023-07-27T03:45:13.680Z,21.1
2023-07-27T03:50:22.676Z,21.2
2023-07-27T03:55:14.478Z,21.1
2023-07-27T04:00:14.376Z,21.1
2023-07-27T04:05:18.354Z,21.1
2023-07-27T04:10:16.328Z,21.1
2023-07-27T04:15:16.556Z,21.1
2023-07-27T04:20:18.610Z,21.1
2023-07-27T04:25:19.151Z,21.1
2023-07-27T04:30:18.032Z,21.1
2023-07-27T04:35:14.019Z,21.1
2023-07-27T04:40:16.509Z,21.1
2023-07-27T04:45:14.537Z,21.1
2023-07-27T04:50:14.655Z,21.1
2023-07-27T04:55:16.574Z,21.1
2023-07-27T05:00:16.483Z,21.1
2023-07-27T05:05:17.920Z,21
2023-07-27T05:10:19.829Z,21
2023-07-27T05:15:13.741Z,21.1
2023-07-27T05:20:15.695Z,21.2
2023-07-27T05:25:20.385Z,21.2
2023-07-27T05:30:16.778Z,21.2
2023-07-27T05:35:13.792Z,21.2
2023-07-27T05:40:17.681Z,21.2
2023-07-27T05:45:13.696Z,21.2
2023-07-27T05:50:17.637Z,21.2
2023-07-27T05:55:20.573Z,21.2
2023-07-27T06:00:23.289Z,21.3
2023-07-27T06:05:26.419Z,21.3
2023-07-27T06:10:16.474Z,21.3
2023-07-27T06:15:18.549Z,21.3
2023-07-27T06:20:17.007Z,21.3
2023-07-27T06:25:16.148Z,21.3
2023-07-27T06:30:18.865Z,21.3
2023-07-27T06:35:18.281Z,21.3
2023-07-27T06:40:16.392Z,21.3
2023-07-27T06:45:16.322Z,21.3
2023-07-27T06:50:20.251Z,21.3
2023-07-27T06:55:14.406Z,21.3
2023-07-27T07:00:19.613Z,21.3
2023-07-27T07:05:19.253Z,21.3
2023-07-27T07:10:14.208Z,21.4
2023-07-27T07:15:20.263Z,21.5
2023-07-27T07:20:16.737Z,21.5
2023-07-27T07:25:21.030Z,21.6
2023-07-27T07:30:17.936Z,21.7
2023-07-27T07:35:19.880Z,21.6
2023-07-27T07:40:22.197Z,21.6
2023-07-27T07:45:14.236Z,21.6
2023-07-27T07:50:16.034Z,21.6
2023-07-27T07:55:13.869Z,21.6
2023-07-27T08:00:17.901Z,21.6
2023-07-27T08:05:14.030Z,21.6
2023-07-27T08:10:15.868Z,21.6
2023-07-27T08:15:21.959Z,21.6
2023-07-27T08:20:30.020Z,21.5
2023-07-27T08:25:40.225Z,21.5
2023-07-27T08:30:16.248Z,21.5
2023-07-27T08:35:16.210Z,21.5
2023-07-27T08:40:22.162Z,21.5
2023-07-27T08:45:16.006Z,21.5
2023-07-27T08:50:19.892Z,21.5
2023-07-27T08:55:14.201Z,21.5
2023-07-27T09:00:14.128Z,21.5
2023-07-27T09:05:16.400Z,21.5
2023-07-27T09:10:18.295Z,21.5
2023-07-27T09:15:18.420Z,21.5
2023-07-27T09:20:20.449Z,21.5
2023-07-27T09:25:22.410Z,21.5
2023-07-27T09:30:18.396Z,21.5
2023-07-27T09:35:18.599Z,21.5
2023-07-27T09:40:15.635Z,21.5
2023-07-27T09:45:18.480Z,21.5
2023-07-27T09:50:16.380Z,21.5
2023-07-27T09:55:16.238Z,21.5
2023-07-27T10:00:18.324Z,21.5
2023-07-27T10:05:17.711Z,21.5
2023-07-27T10:10:21.912Z,21.6
2023-07-27T10:15:18.382Z,21.6
2023-07-27T10:20:24.970Z,21.6
2023-07-27T10:25:16.293Z,21.6
2023-07-27T10:30:18.351Z,21.6
2023-07-27T10:35:14.547Z,21.6
2023-07-27T10:40:14.521Z,21.6
2023-07-27T10:45:14.429Z,21.6
2023-07-27T10:50:16.244Z,21.6
2023-07-27T10:55:16.390Z,21.6
2023-07-27T11:00:16.093Z,21.6
2023-07-27T11:05:20.161Z,21.6
2023-07-27T11:10:18.211Z,21.6
2023-07-27T11:15:24.423Z,21.6
2023-07-27T11:20:18.622Z,21.6
2023-07-27T11:25:16.018Z,21.6
2023-07-27T11:30:20.104Z,21.6
2023-07-27T11:35:15.904Z,21.7
2023-07-27T11:40:14.036Z,21.6
2023-07-27T11:45:16.035Z,21.7
2023-07-27T11:50:20.334Z,21.7
2023-07-27T11:55:20.477Z,21.7
2023-07-27T12:00:16.400Z,21.7
2023-07-27T12:05:18.737Z,21.7
2023-07-27T12:15:14.604Z,21.8
2023-07-27T12:30:33.219Z,21.8
2023-07-27T12:45:16.374Z,21.8
2023-07-27T12:50:16.648Z,21.8
2023-07-27T12:55:17.728Z,21.9
2023-07-27T13:00:14.001Z,21.8
2023-07-27T13:05:14.276Z,21.9
2023-07-27T13:10:18.347Z,21.9
2023-07-27T13:15:14.388Z,21.9
2023-07-27T13:20:18.440Z,21.9
2023-07-27T13:25:20.496Z,21.9
2023-07-27T13:30:20.793Z,21.9
2023-07-27T13:35:21.359Z,21.9
2023-07-27T13:40:20.232Z,22
2023-07-27T13:45:14.033Z,22
2023-07-27T13:50:14.122Z,22
2023-07-27T13:55:16.230Z,22
2023-07-27T14:00:14.752Z,22.1
2023-07-27T14:05:13.697Z,22.1
2023-07-27T14:10:17.022Z,22.1
2023-07-27T14:15:20.028Z,22.1
2023-07-27T14:20:18.809Z,22.1
2023-07-27T14:25:17.646Z,22.1
2023-07-27T14:30:21.661Z,22.1
2023-07-27T14:35:18.434Z,22.2
2023-07-27T14:45:14.467Z,22.2
2023-07-27T14:50:14.312Z,22.2
2023-07-27T14:55:18.735Z,22.3
2023-07-27T15:00:35.558Z,22.2
2023-07-27T15:05:17.249Z,22.3
2023-07-27T15:15:19.712Z,22.3
2023-07-27T15:20:15.811Z,22.3
2023-07-27T15:25:17.687Z,22.4
2023-07-27T15:30:16.565Z,22.4
2023-07-27T15:35:18.775Z,22.4
2023-07-27T15:40:13.541Z,22.4
2023-07-27T15:45:14.338Z,22.5
2023-07-27T15:50:16.479Z,22.5
2023-07-27T15:55:16.278Z,22.6
2023-07-27T16:00:14.223Z,22.6
2023-07-27T16:05:14.242Z,22.6
2023-07-27T16:10:14.083Z,22.6
2023-07-27T16:15:17.912Z,22.7
2023-07-27T16:20:13.683Z,22.7
2023-07-27T16:25:14.679Z,22.7
2023-07-27T16:30:16.731Z,22.7
2023-07-27T16:35:17.541Z,22.8
2023-07-27T16:40:16.566Z,22.9
2023-07-27T16:45:21.170Z,23
2023-07-27T16:50:16.002Z,23
2023-07-27T16:55:14.343Z,23.1
2023-07-27T17:00:14.362Z,23.2
2023-07-27T17:05:13.731Z,23.2
2023-07-27T17:10:18.844Z,23.3
2023-07-27T17:15:13.778Z,23.3
2023-07-27T17:20:18.163Z,23.3
2023-07-27T17:25:22.086Z,23.4
2023-07-27T17:30:16.001Z,23.4
2023-07-27T17:35:16.085Z,23.4
2023-07-27T17:40:22.807Z,23.4
2023-07-27T17:45:20.094Z,23.4
2023-07-27T17:50:16.020Z,23.4
2023-07-27T17:55:23.466Z,23.5
2023-07-27T18:00:14.635Z,23.5
2023-07-27T18:05:14.106Z,23.5
2023-07-27T18:10:16.090Z,23.5
2023-07-27T18:15:16.020Z,23.5
2023-07-27T18:20:17.991Z,23.6
2023-07-27T18:25:17.753Z,23.6
2023-07-27T18:30:19.602Z,23.6
2023-07-27T18:35:18.532Z,23.6
2023-07-27T18:40:18.292Z,23.6
2023-07-27T18:45:14.249Z,23.6
2023-07-27T18:50:14.264Z,23.6
2023-07-27T18:55:22.094Z,23.6
2023-07-27T19:00:14.171Z,23.6
2023-07-27T19:05:14.412Z,23.6
2023-07-27T19:10:20.582Z,23.6
2023-07-27T19:15:16.585Z,23.5
2023-07-27T19:20:14.632Z,23.5
2023-07-27T19:25:18.923Z,23.5
2023-07-27T19:30:18.047Z,23.5
2023-07-27T19:35:16.109Z,23.5
2023-07-27T19:40:17.953Z,23.5
2023-07-27T19:45:14.054Z,23.4
2023-07-27T19:50:22.031Z,23.4
2023-07-27T19:55:15.901Z,23.4
2023-07-27T20:00:20.044Z,23.4
2023-07-27T20:05:14.046Z,23.4
2023-07-27T20:10:20.120Z,23.4
2023-07-27T20:15:16.427Z,23.4
2023-07-27T20:20:16.263Z,23.3
2023-07-27T20:25:16.275Z,23.3
2023-07-27T20:30:16.449Z,23.3
2023-07-27T20:35:16.247Z,23.3
2023-07-27T20:40:14.346Z,23.3
2023-07-27T20:45:16.241Z,23.3
2023-07-27T20:50:14.136Z,23.3
2023-07-27T20:55:14.079Z,23.3
2023-07-27T21:00:17.960Z,23.3
2023-07-27T21:05:16.153Z,23.3
2023-07-27T21:10:18.347Z,23.3
2023-07-27T21:15:16.319Z,23.3
2023-07-27T21:20:18.279Z,23.3
2023-07-27T21:25:16.825Z,23.3
2023-07-27T21:30:18.390Z,23.2
2023-07-27T21:35:16.167Z,23.2
2023-07-27T21:40:25.938Z,23.3
2023-07-27T21:45:15.855Z,23.3
2023-07-27T21:50:22.771Z,23.3
2023-07-27T21:55:20.064Z,23.3
2023-07-27T22:00:14.073Z,23.3
2023-07-27T22:05:15.959Z,23.3
2023-07-27T22:10:14.072Z,23.2
2023-07-27T22:15:13.939Z,23.2
2023-07-27T22:20:14.054Z,23.2
2023-07-27T22:25:17.925Z,23.2
2023-07-27T22:30:14.296Z,23.2
2023-07-27T22:35:14.186Z,23.2
2023-07-27T22:40:16.081Z,23.2
2023-07-27T22:45:16.129Z,23.2
2023-07-27T22:50:20.037Z,23.2
2023-07-27T22:55:16.056Z,23.2
2023-07-27T23:00:14.164Z,23.2
2023-07-27T23:05:16.049Z,23.1
2023-07-27T23:10:15.963Z,23.1
2023-07-27T23:15:19.124Z,23.1
2023-07-27T23:20:16.137Z,23.1
2023-07-27T23:25:18.158Z,23.1
2023-07-27T23:30:14.627Z,23
2023-07-27T23:35:14.610Z,23
2023-07-27T23:40:16.599Z,23
2023-07-27T23:45:16.561Z,23
2023-07-27T23:50:18.736Z,23
2023-07-27T23:55:15.666Z,22.9
